Time;durP1;ratioP1;P1;durP2;ratioP2;P2;SDS_P1;SDS_P2;PMS_P1;PMS_P2;Temp;Humidity;BMP_temperature;BMP_pressure;BME280_temperature;BME280_humidity;BME280_pressure;Samples;Min_cycle;Max_cycle;Signal;HPM_P1;HPM_P2
2023/06/21 00:01:00;;;;;;;868.03;804.53;;;17.90;99.90;;;;;;5134476;27;20448;-62
2023/06/21 00:03:29;;;;;;;875.93;813.93;;;17.90;99.90;;;;;;5133963;27;20500;-62
2023/06/21 00:05:56;;;;;;;879.10;817.70;;;17.80;99.90;;;;;;5133352;27;20452;-62
2023/06/21 00:08:23;;;;;;;871.60;811.00;;;17.70;99.90;;;;;;5133717;27;20444;-62
2023/06/21 00:10:50;;;;;;;872.63;810.83;;;17.60;99.90;;;;;;5133961;27;20544;-61
2023/06/21 00:13:17;;;;;;;868.60;808.20;;;17.60;99.90;;;;;;5133184;27;20448;-62
2023/06/21 00:15:44;;;;;;;865.97;806.70;;;17.50;99.90;;;;;;5133752;27;20448;-62
2023/06/21 00:18:11;;;;;;;857.47;798.17;;;17.50;99.90;;;;;;5132993;27;21007;-62
2023/06/21 00:20:39;;;;;;;862.57;801.33;;;17.40;99.90;;;;;;5134101;27;20803;-62
2023/06/21 00:23:08;;;;;;;865.10;800.10;;;17.30;99.90;;;;;;5133375;27;20939;-62
2023/06/21 00:25:35;;;;;;;864.57;796.50;;;17.30;99.90;;;;;;5133447;27;21029;-62
2023/06/21 00:28:02;;;;;;;860.63;791.60;;;17.30;99.90;;;;;;5133718;27;20452;-62
2023/06/21 00:30:29;;;;;;;859.53;792.13;;;17.30;99.90;;;;;;5132928;27;20448;-62
2023/06/21 00:32:56;;;;;;;859.17;797.17;;;17.30;99.90;;;;;;5133021;27;20836;-62
2023/06/21 00:35:23;;;;;;;863.40;804.87;;;17.30;99.90;;;;;;5132801;27;20504;-62
2023/06/21 00:37:51;;;;;;;876.07;815.93;;;17.20;99.90;;;;;;5133450;27;20873;-62
2023/06/21 00:40:21;;;;;;;871.43;809.87;;;17.10;99.90;;;;;;5132919;27;20943;-62
2023/06/21 00:42:48;;;;;;;868.40;805.80;;;17.10;99.90;;;;;;5133491;27;20784;-62
2023/06/21 00:45:17;;;;;;;861.10;801.43;;;17.00;99.90;;;;;;5132982;27;20817;-62
2023/06/21 00:47:45;;;;;;;855.10;794.60;;;17.00;99.90;;;;;;5132667;27;20459;-62
2023/06/21 00:50:14;;;;;;;864.73;802.27;;;16.90;99.90;;;;;;5133144;27;20834;-62
2023/06/21 00:52:42;;;;;;;873.83;808.17;;;16.90;99.90;;;;;;5132837;27;20463;-62
2023/06/21 00:55:12;;;;;;;869.40;807.07;;;16.90;99.90;;;;;;5131742;28;20508;-62
2023/06/21 00:57:40;;;;;;;860.90;799.80;;;16.90;99.90;;;;;;5132825;27;20444;-61
2023/06/21 01:00:12;;;;;;;860.57;798.17;;;17.00;99.90;;;;;;5132841;28;20892;-62
2023/06/21 01:02:39;;;;;;;867.20;805.27;;;16.90;99.90;;;;;;5133820;27;20449;-61
2023/06/21 01:05:06;;;;;;;857.27;796.03;;;16.90;99.90;;;;;;5132342;27;20444;-62
2023/06/21 01:07:43;;;;;;;858.13;794.33;;;16.90;99.90;;;;;;5133187;27;20452;-62
2023/06/21 01:10:21;;;;;;;856.93;791.50;;;16.80;99.90;;;;;;5132951;27;20864;-62
2023/06/21 01:12:58;;;;;;;869.60;802.00;;;16.80;99.90;;;;;;5132872;27;20440;-62
2023/06/21 01:15:28;;;;;;;855.90;788.83;;;16.90;99.90;;;;;;5132236;28;20563;-62
2023/06/21 01:17:57;;;;;;;855.27;789.70;;;17.00;99.90;;;;;;5133282;28;20888;-62
2023/06/21 01:20:29;;;;;;;869.23;803.03;;;17.00;99.90;;;;;;5133144;27;20813;-62
2023/06/21 01:23:13;;;;;;;864.03;796.23;;;17.00;99.90;;;;;;5132689;27;20508;-62
2023/06/21 01:26:06;;;;;;;868.73;801.13;;;16.90;99.90;;;;;;5131916;28;20448;-62
2023/06/21 01:29:04;;;;;;;868.57;801.57;;;17.00;99.90;;;;;;5132714;27;20452;-62
2023/06/21 01:31:32;;;;;;;869.30;798.30;;;17.00;99.90;;;;;;5132690;28;20817;-62
2023/06/21 01:34:02;;;;;;;862.93;791.83;;;17.00;99.90;;;;;;5131483;28;20482;-62
2023/06/21 01:36:29;;;;;;;866.87;795.80;;;17.00;99.90;;;;;;5132815;28;20452;-62
2023/06/21 01:38:56;;;;;;;856.50;783.70;;;17.10;99.90;;;;;;5132221;27;20444;-62
2023/06/21 01:41:23;;;;;;;862.70;790.00;;;17.20;99.90;;;;;;5132252;27;20444;-62
2023/06/21 01:43:51;;;;;;;868.10;797.10;;;17.30;99.90;;;;;;5132096;27;20444;-62
2023/06/21 01:46:23;;;;;;;865.67;794.73;;;17.30;99.90;;;;;;5131601;28;20814;-62
2023/06/21 01:48:51;;;;;;;866.23;796.23;;;17.30;99.90;;;;;;5132376;27;20444;-62
2023/06/21 01:51:20;;;;;;;868.17;799.60;;;17.40;99.90;;;;;;5135040;27;20989;-62
2023/06/21 01:53:48;;;;;;;867.60;800.40;;;17.30;99.90;;;;;;5135712;27;20505;-62
2023/06/21 01:56:17;;;;;;;868.00;800.70;;;17.30;99.90;;;;;;5136155;27;20444;-62
2023/06/21 01:58:46;;;;;;;864.53;797.60;;;17.20;99.90;;;;;;5136001;27;20439;-62
2023/06/21 02:01:15;;;;;;;860.13;796.30;;;17.10;99.90;;;;;;5135847;27;20566;-62
2023/06/21 02:03:53;;;;;;;860.60;796.03;;;17.00;99.90;;;;;;5134598;27;20937;-62
2023/06/21 02:06:21;;;;;;;865.90;802.77;;;17.00;99.90;;;;;;5127641;27;20448;-62
2023/06/21 02:08:50;;;;;;;862.97;801.10;;;17.00;99.90;;;;;;5135844;27;20439;-62
2023/06/21 02:11:18;;;;;;;867.57;804.20;;;17.00;99.90;;;;;;5135360;27;20923;-62
2023/06/21 02:13:48;;;;;;;861.00;795.83;;;16.90;99.90;;;;;;5134618;27;20798;-62
2023/06/21 02:16:15;;;;;;;862.60;795.90;;;16.80;99.90;;;;;;5135396;27;20531;-62
2023/06/21 02:18:43;;;;;;;859.03;791.23;;;16.90;99.90;;;;;;5134912;27;20509;-62
2023/06/21 02:21:11;;;;;;;859.63;792.17;;;17.00;99.90;;;;;;5136476;27;20448;-62
2023/06/21 02:23:38;;;;;;;864.33;797.63;;;17.00;99.90;;;;;;5135017;27;20810;-61
2023/06/21 02:26:05;;;;;;;851.33;783.93;;;17.00;99.90;;;;;;5136145;27;20444;-62
2023/06/21 02:28:32;;;;;;;847.87;780.57;;;17.00;99.90;;;;;;5135389;27;20444;-62
2023/06/21 02:30:59;;;;;;;850.97;783.27;;;17.00;99.90;;;;;;5135473;27;21042;-62
2023/06/21 02:33:26;;;;;;;853.90;786.60;;;17.10;99.90;;;;;;5134755;27;20523;-62
2023/06/21 02:35:55;;;;;;;854.13;788.90;;;17.20;99.90;;;;;;5136181;27;20552;-62
2023/06/21 02:38:25;;;;;;;851.47;790.90;;;17.30;99.90;;;;;;5135840;27;20912;-62
2023/06/21 02:40:52;;;;;;;866.87;805.50;;;17.20;99.90;;;;;;5135905;27;20458;-62
2023/06/21 02:43:19;;;;;;;867.00;805.83;;;17.20;99.90;;;;;;5135492;27;20455;-63
2023/06/21 02:45:46;;;;;;;867.70;804.30;;;17.10;99.90;;;;;;5135039;27;20497;-64
2023/06/21 02:48:13;;;;;;;872.50;808.27;;;17.20;99.90;;;;;;5135273;27;20452;-64
2023/06/21 02:50:40;;;;;;;874.50;809.97;;;17.20;99.90;;;;;;5134972;27;20452;-64
2023/06/21 02:53:09;;;;;;;884.10;820.30;;;17.20;99.90;;;;;;5135791;27;20501;-64
2023/06/21 02:55:36;;;;;;;882.60;820.57;;;17.30;99.90;;;;;;5133203;27;20520;-64
2023/06/21 02:58:03;;;;;;;886.50;822.40;;;17.20;99.90;;;;;;5128787;27;21208;-64
2023/06/21 03:00:31;;;;;;;885.43;822.07;;;17.30;99.90;;;;;;5135458;27;20444;-64
2023/06/21 03:03:00;;;;;;;887.47;824.67;;;17.30;99.90;;;;;;5135759;27;20908;-64
2023/06/21 03:05:27;;;;;;;891.10;827.80;;;17.30;99.90;;;;;;5135177;27;20455;-64
2023/06/21 03:07:54;;;;;;;885.83;823.83;;;17.30;99.90;;;;;;5136787;27;20440;-64
2023/06/21 03:10:23;;;;;;;898.07;835.30;;;17.30;99.90;;;;;;5135374;27;20452;-64
2023/06/21 03:12:51;;;;;;;892.60;830.00;;;17.30;99.90;;;;;;5126802;27;20480;-64
2023/06/21 03:15:18;;;;;;;892.30;830.50;;;17.20;99.90;;;;;;5132530;27;21131;-64
2023/06/21 03:17:45;;;;;;;890.50;829.93;;;17.20;99.90;;;;;;5135015;27;20479;-63
2023/06/21 03:20:13;;;;;;;892.10;834.17;;;17.20;99.90;;;;;;5134419;27;20459;-64
2023/06/21 03:22:41;;;;;;;882.10;824.60;;;17.20;99.90;;;;;;5134590;27;20475;-64
2023/06/21 03:25:09;;;;;;;871.50;813.70;;;17.10;99.90;;;;;;5122835;27;20451;-64
2023/06/21 03:27:37;;;;;;;878.10;820.90;;;17.10;99.90;;;;;;5135278;27;20452;-64
2023/06/21 03:30:05;;;;;;;874.17;815.50;;;17.00;99.90;;;;;;5134266;27;20454;-64
2023/06/21 03:32:32;;;;;;;868.53;809.90;;;17.00;99.90;;;;;;5134899;27;20947;-64
2023/06/21 03:34:59;;;;;;;863.00;802.40;;;17.00;99.90;;;;;;5134455;27;20477;-64
2023/06/21 03:37:27;;;;;;;862.77;801.20;;;17.10;99.90;;;;;;5134498;27;20444;-64
2023/06/21 03:39:54;;;;;;;854.87;793.90;;;17.10;99.90;;;;;;5134730;27;20556;-64
2023/06/21 03:42:21;;;;;;;856.13;797.07;;;17.10;99.90;;;;;;5134813;27;20452;-64
2023/06/21 03:44:49;;;;;;;853.03;795.13;;;17.10;99.90;;;;;;5134565;27;20788;-64
2023/06/21 03:47:16;;;;;;;853.77;796.07;;;17.10;99.90;;;;;;5134820;27;20466;-64
2023/06/21 03:49:43;;;;;;;855.07;796.20;;;17.10;99.90;;;;;;5134535;27;20534;-64
2023/06/21 03:52:10;;;;;;;853.70;795.00;;;17.10;99.90;;;;;;5132997;27;20535;-64
2023/06/21 03:54:37;;;;;;;858.57;799.50;;;17.00;99.90;;;;;;5122155;27;20521;-64
2023/06/21 03:57:04;;;;;;;851.17;794.77;;;17.10;99.90;;;;;;5154289;27;20447;-64
2023/06/21 03:59:31;;;;;;;853.17;797.17;;;17.10;99.90;;;;;;5134919;27;20885;-64
2023/06/21 04:02:00;;;;;;;850.80;794.33;;;17.00;99.90;;;;;;5134294;27;20519;-64
2023/06/21 04:04:26;;;;;;;844.50;790.10;;;17.00;99.90;;;;;;5132898;27;20535;-64
2023/06/21 04:06:53;;;;;;;848.57;792.97;;;17.00;99.90;;;;;;5134017;27;20542;-65
2023/06/21 04:09:20;;;;;;;863.97;804.93;;;17.00;99.90;;;;;;5133909;27;20848;-63
2023/06/21 04:11:48;;;;;;;860.80;801.00;;;17.10;99.90;;;;;;5132760;27;20490;-64
2023/06/21 04:14:15;;;;;;;865.60;805.10;;;17.20;99.90;;;;;;5132964;27;20543;-64
2023/06/21 04:16:43;;;;;;;862.30;802.50;;;17.20;99.90;;;;;;5134379;27;20478;-64
2023/06/21 04:19:11;;;;;;;858.33;799.20;;;17.30;99.90;;;;;;5133953;27;20458;-64
2023/06/21 04:21:40;;;;;;;854.40;796.10;;;17.30;99.90;;;;;;5134125;27;20551;-64
2023/06/21 04:24:07;;;;;;;852.30;795.00;;;17.30;99.90;;;;;;5133634;27;20470;-65
2023/06/21 04:26:33;;;;;;;854.80;798.00;;;17.40;99.90;;;;;;5133974;27;20540;-64
2023/06/21 04:29:01;;;;;;;849.20;793.63;;;17.50;99.90;;;;;;5133925;27;20480;-64
2023/06/21 04:31:29;;;;;;;847.80;792.70;;;17.50;99.90;;;;;;5134127;27;20501;-64
2023/06/21 04:33:55;;;;;;;854.67;797.93;;;17.60;99.90;;;;;;5133453;27;20448;-65
2023/06/21 04:36:24;;;;;;;855.10;800.00;;;17.60;99.90;;;;;;5133903;27;20836;-65
2023/06/21 04:38:51;;;;;;;861.57;804.87;;;17.70;99.90;;;;;;5133763;27;20447;-64
2023/06/21 04:41:19;;;;;;;861.23;805.60;;;17.70;99.90;;;;;;5132571;27;20509;-64
2023/06/21 04:43:46;;;;;;;857.93;802.00;;;17.70;99.90;;;;;;5133049;27;20509;-64
2023/06/21 04:46:13;;;;;;;848.60;792.10;;;17.80;99.90;;;;;;5133073;27;21027;-64
2023/06/21 04:48:40;;;;;;;848.00;792.30;;;18.00;99.90;;;;;;5133580;27;20451;-64
2023/06/21 04:51:07;;;;;;;854.60;797.23;;;18.10;99.90;;;;;;5133984;27;20452;-64
2023/06/21 04:53:35;;;;;;;856.60;798.27;;;18.30;99.90;;;;;;5132524;27;20449;-64
2023/06/21 04:56:02;;;;;;;861.07;804.67;;;18.40;99.90;;;;;;5132502;27;20560;-64
2023/06/21 04:58:35;;;;;;;857.00;801.17;;;18.50;99.90;;;;;;5132882;27;20531;-64
2023/06/21 05:01:02;;;;;;;856.33;802.33;;;18.70;99.90;;;;;;5133829;27;20587;-64
2023/06/21 05:03:32;;;;;;;857.07;804.37;;;18.90;99.90;;;;;;5132706;27;20939;-64
2023/06/21 05:05:59;;;;;;;851.00;799.13;;;19.10;99.90;;;;;;5133822;28;20444;-64
2023/06/21 05:08:26;;;;;;;841.70;792.80;;;19.30;99.90;;;;;;5133506;27;20455;-64
2023/06/21 05:10:55;;;;;;;750.77;713.90;;;19.50;99.90;;;;;;5132081;27;20953;-64
2023/06/21 05:13:21;;;;;;;674.37;643.87;;;19.70;99.90;;;;;;5132594;27;20509;-64
2023/06/21 05:15:48;;;;;;;604.70;578.80;;;19.90;99.90;;;;;;5132506;28;20559;-64
2023/06/21 05:18:15;;;;;;;403.80;388.63;;;20.20;99.90;;;;;;5133239;27;20534;-64
2023/06/21 05:20:42;;;;;;;166.27;160.27;;;20.60;99.90;;;;;;5133666;27;20536;-64
2023/06/21 05:23:09;;;;;;;49.73;46.73;;;20.90;99.90;;;;;;5133008;28;20538;-64
2023/06/21 05:25:36;;;;;;;19.10;17.80;;;21.20;99.90;;;;;;5135066;27;20496;-64
2023/06/21 05:28:05;;;;;;;19.30;17.90;;;21.10;99.90;;;;;;5137442;27;20539;-64
2023/06/21 05:30:32;;;;;;;17.33;15.83;;;21.10;99.90;;;;;;5135462;27;20958;-64
2023/06/21 05:32:58;;;;;;;14.17;10.00;;;21.10;99.90;;;;;;5137184;27;20481;-64
2023/06/21 05:35:25;;;;;;;12.77;10.30;;;21.00;99.90;;;;;;5135973;27;20512;-64
2023/06/21 05:37:53;;;;;;;11.60;8.67;;;21.20;99.90;;;;;;5136235;27;20531;-64
2023/06/21 05:40:20;;;;;;;9.87;7.50;;;21.30;99.90;;;;;;5136392;27;20454;-64
2023/06/21 05:42:47;;;;;;;16.50;8.20;;;21.60;99.90;;;;;;5136504;27;20443;-64
2023/06/21 05:45:17;;;;;;;10.23;7.13;;;21.50;99.90;;;;;;5136524;27;20474;-64
2023/06/21 05:47:44;;;;;;;14.43;7.20;;;21.60;99.90;;;;;;5136250;27;20463;-65
2023/06/21 05:50:15;;;;;;;17.83;7.60;;;21.70;99.90;;;;;;5136494;27;20459;-64
2023/06/21 05:52:41;;;;;;;9.83;6.37;;;22.10;99.90;;;;;;5135373;27;20953;-64
2023/06/21 05:55:09;;;;;;;18.20;7.50;;;22.30;99.90;;;;;;5135862;27;20524;-64
2023/06/21 05:57:36;;;;;;;11.17;6.80;;;22.60;99.90;;;;;;5136067;27;20542;-64
2023/06/21 06:00:08;;;;;;;15.07;8.37;;;22.70;99.90;;;;;;5136160;27;20455;-64
2023/06/21 06:02:37;;;;;;;9.80;6.70;;;22.70;99.90;;;;;;5135132;27;20535;-64
2023/06/21 06:05:04;;;;;;;11.27;6.97;;;22.60;99.90;;;;;;5135037;27;20827;-64
2023/06/21 06:07:31;;;;;;;10.70;7.33;;;22.60;99.90;;;;;;5136370;27;20444;-64
2023/06/21 06:09:58;;;;;;;11.90;7.10;;;22.50;99.90;;;;;;5136134;27;20456;-64
2023/06/21 06:12:25;;;;;;;15.30;6.90;;;22.60;99.90;;;;;;5136570;27;20456;-64
2023/06/21 06:14:52;;;;;;;10.70;6.93;;;22.60;99.90;;;;;;5134925;27;20447;-64
2023/06/21 06:17:19;;;;;;;8.70;6.30;;;22.70;99.90;;;;;;5135447;27;20839;-64
2023/06/21 06:19:47;;;;;;;12.13;8.33;;;22.60;99.90;;;;;;5135554;27;20881;-64
2023/06/21 06:22:14;;;;;;;15.30;8.17;;;22.60;99.90;;;;;;5135654;27;20556;-64
2023/06/21 06:24:42;;;;;;;9.80;6.37;;;22.90;99.90;;;;;;5134888;27;20535;-64
2023/06/21 06:27:09;;;;;;;16.93;7.00;;;23.40;99.90;;;;;;5135515;27;20472;-64
2023/06/21 06:29:36;;;;;;;11.67;6.97;;;24.00;99.90;;;;;;5135499;27;21015;-64
2023/06/21 06:32:04;;;;;;;13.80;7.00;;;24.20;99.90;;;;;;5135917;27;20535;-64
2023/06/21 06:34:31;;;;;;;9.80;7.80;;;24.60;99.90;;;;;;5135112;27;20846;-64
2023/06/21 06:36:59;;;;;;;11.43;7.00;;;24.70;99.90;;;;;;5134792;27;20802;-64
2023/06/21 06:39:26;;;;;;;12.70;7.50;;;25.10;99.90;;;;;;5135449;27;20834;-64
2023/06/21 06:41:53;;;;;;;13.37;7.60;;;25.60;99.90;;;;;;5135128;27;20447;-64
2023/06/21 06:44:19;;;;;;;13.00;8.03;;;25.90;99.90;;;;;;5135000;27;20447;-65
2023/06/21 06:46:47;;;;;;;11.57;8.03;;;25.80;99.90;;;;;;5135842;27;20460;-65
2023/06/21 06:49:13;;;;;;;15.80;9.10;;;25.60;99.90;;;;;;5135157;27;20801;-65
2023/06/21 06:51:42;;;;;;;13.10;8.37;;;26.00;99.90;;;;;;5135847;27;20595;-65
2023/06/21 06:54:11;;;;;;;13.90;8.37;;;26.20;99.90;;;;;;5134439;27;20817;-64
2023/06/21 06:56:38;;;;;;;12.93;7.87;;;26.70;97.70;;;;;;5135273;27;20469;-64
2023/06/21 06:59:05;;;;;;;12.53;7.80;;;27.10;97.00;;;;;;5135525;27;20460;-65
2023/06/21 07:01:32;;;;;;;10.93;7.27;;;26.90;93.10;;;;;;5135378;27;20442;-65
2023/06/21 07:03:59;;;;;;;14.93;8.70;;;26.70;94.20;;;;;;5133848;27;20857;-65
2023/06/21 07:06:26;;;;;;;11.70;7.63;;;26.80;92.30;;;;;;5134183;27;20501;-65
2023/06/21 07:08:53;;;;;;;12.20;7.93;;;27.00;90.80;;;;;;5133919;27;20455;-65
2023/06/21 07:11:22;;;;;;;10.73;7.27;;;26.90;90.80;;;;;;5132308;27;20426;-65
2023/06/21 07:13:48;;;;;;;12.37;7.30;;;27.20;89.50;;;;;;5132482;27;20520;-65
2023/06/21 07:16:16;;;;;;;11.50;7.90;;;28.00;91.20;;;;;;5132858;27;20460;-65
2023/06/21 07:18:42;;;;;;;12.00;7.47;;;28.20;80.70;;;;;;5133157;27;20451;-65
2023/06/21 07:21:10;;;;;;;10.90;6.50;;;28.30;76.90;;;;;;5134043;27;20462;-65
2023/06/21 07:23:36;;;;;;;10.90;6.60;;;27.90;80.30;;;;;;5133390;27;20444;-65
2023/06/21 07:26:03;;;;;;;11.77;7.87;;;27.60;80.60;;;;;;5131189;27;20528;-65
2023/06/21 07:28:32;;;;;;;11.57;7.70;;;27.20;82.90;;;;;;5133878;27;20450;-62
2023/06/21 07:30:59;;;;;;;10.33;7.37;;;27.20;82.60;;;;;;5135702;27;20650;-62
2023/06/21 07:33:26;;;;;;;15.00;8.30;;;27.10;82.00;;;;;;5136105;27;20454;-62
2023/06/21 07:35:53;;;;;;;9.57;6.97;;;25.90;90.50;;;;;;5135737;27;20473;-67
2023/06/21 07:38:20;;;;;;;10.13;7.17;;;25.20;92.60;;;;;;5134274;27;20535;-67
2023/06/21 07:40:47;;;;;;;11.73;8.10;;;25.50;91.60;;;;;;5134556;27;20821;-67
2023/06/21 07:43:14;;;;;;;12.10;8.00;;;25.80;91.50;;;;;;5134231;27;20448;-67
2023/06/21 07:45:42;;;;;;;13.37;7.50;;;26.50;88.80;;;;;;5134146;27;20538;-67
2023/06/21 07:48:10;;;;;;;11.63;7.50;;;26.60;85.30;;;;;;5133386;27;20829;-67
2023/06/21 07:50:37;;;;;;;10.97;7.23;;;27.60;84.10;;;;;;5134417;27;20462;-67
2023/06/21 07:53:04;;;;;;;14.83;8.30;;;27.60;81.20;;;;;;5134004;27;20489;-67
2023/06/21 07:55:31;;;;;;;11.33;7.17;;;27.40;77.10;;;;;;5133931;27;20462;-67
2023/06/21 07:57:58;;;;;;;11.37;7.10;;;27.50;76.40;;;;;;5133943;27;20464;-67
2023/06/21 08:00:25;;;;;;;10.70;7.10;;;27.50;76.50;;;;;;5133871;27;20932;-67
2023/06/21 08:02:54;;;;;;;11.80;6.90;;;28.10;74.30;;;;;;5134136;27;20511;-67
2023/06/21 08:05:21;;;;;;;9.83;7.97;;;28.20;71.50;;;;;;5133653;27;20785;-67
2023/06/21 08:07:48;;;;;;;17.63;10.40;;;28.60;70.60;;;;;;5133991;27;20472;-68
2023/06/21 08:10:15;;;;;;;11.20;8.70;;;27.50;73.50;;;;;;5133751;27;20418;-67
2023/06/21 08:12:42;;;;;;;13.63;9.67;;;27.00;78.90;;;;;;5133735;27;20448;-67
2023/06/21 08:15:09;;;;;;;12.17;9.33;;;26.70;78.80;;;;;;5133667;27;20448;-67
2023/06/21 08:17:36;;;;;;;18.20;10.03;;;26.10;83.50;;;;;;5133658;27;20975;-67
2023/06/21 08:20:06;;;;;;;14.93;9.43;;;25.90;84.60;;;;;;5133594;27;20575;-67
2023/06/21 08:22:33;;;;;;;11.43;7.97;;;26.90;84.00;;;;;;5133635;27;20455;-67
2023/06/21 08:25:00;;;;;;;14.70;11.10;;;27.70;81.90;;;;;;5133020;27;20454;-67
2023/06/21 08:27:27;;;;;;;12.70;8.90;;;27.60;73.00;;;;;;5133735;27;20445;-67
2023/06/21 08:29:54;;;;;;;11.20;8.37;;;27.80;72.20;;;;;;5133451;27;20458;-67
2023/06/21 08:32:21;;;;;;;12.07;8.00;;;27.30;72.50;;;;;;5133622;27;21014;-67
2023/06/21 08:34:48;;;;;;;11.37;7.90;;;27.00;76.00;;;;;;5132890;27;20452;-67
2023/06/21 08:37:21;;;;;;;13.40;8.90;;;26.80;75.90;;;;;;5133335;27;20473;-67
2023/06/21 08:39:48;;;;;;;11.43;8.60;;;26.80;75.90;;;;;;5133055;27;20456;-67
2023/06/21 08:42:15;;;;;;;12.13;8.53;;;26.80;75.90;;;;;;5133313;27;20456;-67
2023/06/21 08:44:42;;;;;;;13.33;10.23;;;27.00;76.00;;;;;;5133021;27;20501;-67
2023/06/21 08:47:09;;;;;;;11.13;8.37;;;27.30;76.20;;;;;;5133308;27;20807;-67
2023/06/21 08:49:40;;;;;;;12.20;8.43;;;28.10;71.00;;;;;;5133137;27;21055;-67
2023/06/21 08:52:10;;;;;;;10.80;7.87;;;28.00;64.90;;;;;;5133139;27;20463;-67
2023/06/21 08:54:44;;;;;;;15.30;9.13;;;27.90;66.40;;;;;;5132810;27;20497;-67
2023/06/21 08:57:17;;;;;;;11.90;8.73;;;27.20;70.70;;;;;;5133112;28;20472;-67
2023/06/21 08:59:50;;;;;;;14.10;10.10;;;27.60;70.80;;;;;;5132788;27;20452;-67
2023/06/21 09:02:27;;;;;;;17.40;11.00;;;27.70;73.00;;;;;;5133364;27;20479;-67
2023/06/21 09:04:57;;;;;;;17.60;9.03;;;27.40;74.10;;;;;;5132680;27;20464;-67
2023/06/21 09:07:25;;;;;;;16.57;9.90;;;27.20;73.40;;;;;;5133323;28;20802;-67
2023/06/21 09:09:55;;;;;;;11.30;9.53;;;27.30;69.40;;;;;;5133358;28;20451;-67
2023/06/21 09:12:24;;;;;;;14.60;9.07;;;28.20;66.90;;;;;;5133192;28;20467;-67
2023/06/21 09:14:52;;;;;;;12.33;9.87;;;28.30;67.50;;;;;;5132697;28;20508;-67
2023/06/21 09:17:19;;;;;;;14.57;9.93;;;29.10;60.80;;;;;;5132777;28;20558;-67
2023/06/21 09:19:46;;;;;;;12.50;9.13;;;28.00;60.00;;;;;;5132781;28;20451;-67
2023/06/21 09:22:14;;;;;;;12.50;9.27;;;27.90;60.00;;;;;;5133012;28;20448;-67
2023/06/21 09:24:41;;;;;;;14.47;10.93;;;28.10;61.00;;;;;;5132663;28;20459;-67
2023/06/21 09:27:09;;;;;;;13.93;9.00;;;27.60;66.20;;;;;;5133220;28;20449;-65
2023/06/21 09:29:36;;;;;;;14.63;8.33;;;28.30;68.70;;;;;;5133585;28;20474;-65
2023/06/21 09:32:04;;;;;;;11.70;8.37;;;29.40;58.10;;;;;;5134503;27;20542;-65
2023/06/21 09:34:30;;;;;;;13.90;8.27;;;29.60;48.90;;;;;;5134225;27;20444;-65
2023/06/21 09:36:57;;;;;;;13.43;10.00;;;29.50;50.30;;;;;;5132843;28;20506;-65
2023/06/21 09:39:25;;;;;;;17.07;10.77;;;28.70;56.80;;;;;;5132810;28;20455;-65
2023/06/21 09:41:51;;;;;;;13.63;10.50;;;28.30;61.10;;;;;;5133074;28;20885;-63
2023/06/21 09:44:22;;;;;;;15.50;11.77;;;27.40;63.90;;;;;;5131935;27;20467;-63
2023/06/21 09:46:49;;;;;;;14.70;11.37;;;27.50;68.10;;;;;;5133856;27;20224;-62
2023/06/21 09:49:16;;;;;;;16.77;11.03;;;27.80;59.90;;;;;;5133093;28;20946;-63
2023/06/21 09:51:45;;;;;;;13.93;10.47;;;27.40;61.90;;;;;;5132805;27;20867;-62
2023/06/21 09:54:11;;;;;;;16.40;10.60;;;27.60;66.80;;;;;;5132570;27;20448;-63
2023/06/21 09:56:38;;;;;;;12.07;8.87;;;28.10;61.70;;;;;;5132542;27;20467;-62
2023/06/21 09:59:14;;;;;;;13.50;10.43;;;29.00;57.90;;;;;;5132660;27;20535;-62
2023/06/21 10:01:45;;;;;;;16.73;10.07;;;30.10;52.70;;;;;;5132560;28;20485;-63
2023/06/21 10:04:14;;;;;;;12.80;10.23;;;29.60;51.20;;;;;;5132488;27;20872;-63
2023/06/21 10:06:48;;;;;;;12.27;9.60;;;29.90;48.60;;;;;;5132556;28;20931;-63
2023/06/21 10:09:15;;;;;;;13.00;10.10;;;30.00;47.40;;;;;;5132245;28;20534;-63
2023/06/21 10:11:44;;;;;;;12.17;9.27;;;29.50;43.10;;;;;;5134211;27;20448;-62
2023/06/21 10:14:21;;;;;;;13.50;10.30;;;29.00;47.70;;;;;;5135832;27;20452;-63
2023/06/21 10:16:53;;;;;;;16.27;9.90;;;28.90;51.80;;;;;;5136029;27;20986;-63
2023/06/21 10:19:22;;;;;;;16.00;8.30;;;29.60;50.50;;;;;;5135732;27;20437;-62
2023/06/21 10:21:52;;;;;;;12.07;8.83;;;29.70;40.90;;;;;;5135890;27;20454;-62
2023/06/21 10:24:22;;;;;;;14.17;9.67;;;29.80;41.30;;;;;;5135713;27;20547;-63
2023/06/21 10:26:49;;;;;;;17.43;9.87;;;30.00;41.20;;;;;;5135880;27;20928;-63
2023/06/21 10:29:18;;;;;;;16.73;11.80;;;29.80;43.40;;;;;;5135742;27;20548;-63
2023/06/21 10:31:47;;;;;;;16.30;10.63;;;28.70;43.80;;;;;;5135867;27;20478;-63
2023/06/21 10:34:20;;;;;;;16.90;11.00;;;28.50;51.50;;;;;;5135201;27;20448;-63
2023/06/21 10:36:52;;;;;;;14.07;8.47;;;28.80;51.70;;;;;;5135824;27;20480;-63
2023/06/21 10:39:21;;;;;;;18.10;10.80;;;29.70;43.30;;;;;;5135754;27;20458;-63
2023/06/21 10:41:49;;;;;;;15.57;10.43;;;29.50;44.30;;;;;;5135822;27;20458;-62
2023/06/21 10:44:17;;;;;;;14.60;9.63;;;29.90;43.50;;;;;;5135565;27;20946;-62
2023/06/21 10:46:45;;;;;;;11.40;8.40;;;30.10;39.50;;;;;;5135376;27;20881;-63
2023/06/21 10:49:13;;;;;;;11.47;8.67;;;29.50;43.10;;;;;;5135536;27;20426;-63
2023/06/21 10:51:43;;;;;;;13.80;9.40;;;30.10;34.30;;;;;;5135424;27;20448;-63
2023/06/21 10:54:10;;;;;;;12.73;9.50;;;29.50;38.60;;;;;;5132662;27;20836;-64
2023/06/21 10:56:38;;;;;;;15.20;9.77;;;29.40;41.90;;;;;;5134164;27;20195;-65
2023/06/21 10:59:05;;;;;;;12.80;7.63;;;29.40;43.10;;;;;;5134315;27;20448;-65
2023/06/21 11:01:33;;;;;;;13.50;8.40;;;29.70;37.90;;;;;;5133685;27;20456;-68
2023/06/21 11:04:00;;;;;;;13.43;8.30;;;30.10;34.30;;;;;;5133717;27;20480;-67
2023/06/21 11:06:29;;;;;;;10.47;7.10;;;30.90;34.80;;;;;;5134719;27;20428;-66
2023/06/21 11:08:57;;;;;;;9.47;6.73;;;31.50;30.20;;;;;;5135197;27;20422;-66
2023/06/21 11:11:32;;;;;;;11.00;7.83;;;32.00;27.10;;;;;;5135238;27;20444;-67
2023/06/21 11:14:02;;;;;;;9.00;6.47;;;30.50;26.30;;;;;;5132979;27;20423;-67
2023/06/21 11:16:32;;;;;;;11.80;7.77;;;29.90;30.50;;;;;;5135403;27;20455;-67
2023/06/21 11:19:06;;;;;;;10.83;7.53;;;30.40;29.50;;;;;;5134658;27;20517;-66
2023/06/21 11:21:40;;;;;;;12.90;7.70;;;30.60;28.50;;;;;;5133705;27;20444;-66
2023/06/21 11:24:11;;;;;;;11.30;7.17;;;30.80;26.50;;;;;;5134397;27;20463;-67
2023/06/21 11:27:00;;;;;;;8.80;5.70;;;31.60;25.20;;;;;;5132857;27;20951;-67
2023/06/21 11:29:28;;;;;;;8.70;4.80;;;30.90;23.90;;;;;;5133685;27;20516;-67
2023/06/21 11:32:11;;;;;;;9.47;5.87;;;31.30;19.20;;;;;;5134984;27;20448;-67
2023/06/21 11:34:38;;;;;;;11.10;6.23;;;31.20;19.30;;;;;;5131295;27;20454;-66
2023/06/21 11:37:39;;;;;;;10.30;6.37;;;30.90;19.80;;;;;;5134039;27;20467;-66
2023/06/21 11:40:10;;;;;;;8.30;5.20;;;29.70;22.90;;;;;;5115513;27;20456;-66
2023/06/21 11:42:38;;;;;;;10.40;5.80;;;30.50;20.90;;;;;;5134064;27;20448;-66
2023/06/21 11:45:22;;;;;;;10.00;5.73;;;30.40;19.00;;;;;;5132192;27;20450;-66
2023/06/21 11:48:06;;;;;;;10.90;6.13;;;30.10;22.80;;;;;;5132821;27;20433;-65
2023/06/21 11:50:34;;;;;;;11.40;6.33;;;30.60;22.20;;;;;;5134704;27;20458;-67
2023/06/21 11:53:16;;;;;;;9.07;5.87;;;31.10;19.10;;;;;;5134591;27;20448;-65
2023/06/21 11:55:46;;;;;;;11.90;6.33;;;31.30;19.20;;;;;;5134204;27;20427;-66
2023/06/21 11:58:13;;;;;;;9.63;6.47;;;31.10;19.10;;;;;;5134044;27;20468;-66
2023/06/21 12:00:39;;;;;;;8.97;5.80;;;31.60;19.40;;;;;;5134414;27;21000;-66
2023/06/21 12:03:07;;;;;;;9.27;5.87;;;31.20;16.90;;;;;;5134399;27;20516;-66
2023/06/21 12:05:49;;;;;;;9.37;5.80;;;31.00;21.30;;;;;;5133095;27;20539;-67
2023/06/21 12:08:17;;;;;;;7.73;5.30;;;30.50;19.60;;;;;;5134269;27;20452;-67
2023/06/21 12:10:46;;;;;;;17.40;6.70;;;31.00;18.00;;;;;;5134591;27;20452;-67
2023/06/21 12:13:14;;;;;;;8.60;5.60;;;31.40;19.30;;;;;;5130659;27;20444;-67
2023/06/21 12:15:47;;;;;;;9.50;6.43;;;30.60;18.90;;;;;;5133604;27;20459;-68
2023/06/21 12:18:14;;;;;;;11.30;6.13;;;30.00;18.60;;;;;;5133618;27;20807;-66
2023/06/21 12:20:41;;;;;;;10.43;6.90;;;30.50;19.40;;;;;;5132945;27;20456;-66
2023/06/21 12:23:09;;;;;;;8.60;5.53;;;31.10;19.10;;;;;;5133561;27;20451;-67
2023/06/21 12:25:48;;;;;;;9.23;4.93;;;31.60;16.10;;;;;;5133441;27;20804;-67
2023/06/21 12:28:17;;;;;;;7.37;4.57;;;30.70;14.90;;;;;;5131272;27;20465;-67
2023/06/21 12:30:53;;;;;;;7.60;5.30;;;29.60;18.30;;;;;;5131973;27;21012;-67